Time;durP1;ratioP1;P1;durP2;ratioP2;P2;SDS_P1;SDS_P2;PMS_P1;PMS_P2;Temp;Humidity;BMP_temperature;BMP_pressure;BME280_temperature;BME280_humidity;BME280_pressure;Samples;Min_cycle;Max_cycle;Signal;HPM_P1;HPM_P2
2023/09/12 00:02:16;;;;;;;12.23;9.15;;;19.10;99.90;;;;;;4962512;28;20186;-30
2023/09/12 00:04:42;;;;;;;10.27;8.48;;;19.10;99.90;;;;;;4947932;28;20204;-30
2023/09/12 00:07:08;;;;;;;13.40;9.15;;;19.10;99.90;;;;;;4962522;28;20230;-29
2023/09/12 00:09:33;;;;;;;14.30;9.40;;;19.00;99.90;;;;;;4998785;28;20267;-29
2023/09/12 00:11:59;;;;;;;10.52;9.15;;;19.00;99.90;;;;;;4968283;28;20192;-30
2023/09/12 00:14:25;;;;;;;13.00;9.25;;;18.90;99.90;;;;;;4951018;28;20208;-30
2023/09/12 00:16:55;;;;;;;11.40;8.52;;;18.90;99.90;;;;;;4949205;28;20265;-29
2023/09/12 00:19:21;;;;;;;11.00;8.80;;;18.90;99.90;;;;;;4957850;28;20181;-29
2023/09/12 00:21:46;;;;;;;12.07;9.10;;;18.90;99.90;;;;;;4958307;28;20189;-30
2023/09/12 00:24:12;;;;;;;10.07;8.93;;;18.90;99.90;;;;;;4972769;28;20215;-30
2023/09/12 00:26:38;;;;;;;12.05;8.77;;;18.80;99.90;;;;;;4978422;28;20326;-30
2023/09/12 00:29:04;;;;;;;15.05;9.10;;;18.80;99.90;;;;;;4961725;28;20176;-30
2023/09/12 00:31:29;;;;;;;12.30;8.48;;;18.80;99.90;;;;;;4963570;28;20282;-30
2023/09/12 00:33:55;;;;;;;11.35;9.07;;;18.80;99.90;;;;;;4955968;28;20638;-30
2023/09/12 00:36:21;;;;;;;11.50;8.80;;;18.70;99.90;;;;;;4954396;28;20314;-30
2023/09/12 00:38:47;;;;;;;11.15;9.10;;;18.70;99.90;;;;;;4976379;28;20188;-30
2023/09/12 00:41:13;;;;;;;14.55;9.18;;;18.60;99.90;;;;;;4969622;28;20181;-30
2023/09/12 00:43:38;;;;;;;10.63;9.50;;;18.60;99.90;;;;;;4968157;28;20189;-30
2023/09/12 00:46:04;;;;;;;11.05;9.60;;;18.50;99.90;;;;;;4953048;28;20203;-30
2023/09/12 00:48:31;;;;;;;14.52;10.13;;;18.50;99.90;;;;;;4969486;28;20214;-29
2023/09/12 00:50:57;;;;;;;16.42;10.13;;;18.50;99.90;;;;;;4965349;28;20195;-30
2023/09/12 00:53:23;;;;;;;13.27;9.88;;;18.50;99.90;;;;;;4956242;28;20187;-30
2023/09/12 00:55:56;;;;;;;16.67;10.25;;;18.50;99.90;;;;;;4948084;28;20204;-30
2023/09/12 00:58:23;;;;;;;13.98;9.90;;;18.50;99.90;;;;;;4954505;28;20180;-31
2023/09/12 01:00:49;;;;;;;14.32;9.77;;;18.50;99.90;;;;;;4951174;28;20192;-31
2023/09/12 01:03:15;;;;;;;11.95;9.02;;;18.40;99.90;;;;;;4958394;28;20307;-30
2023/09/12 01:05:42;;;;;;;11.98;9.55;;;18.40;99.90;;;;;;4948192;28;20222;-30
2023/09/12 01:08:08;;;;;;;11.38;9.15;;;18.40;99.90;;;;;;4983460;28;20183;-30
2023/09/12 01:10:35;;;;;;;13.77;9.45;;;18.30;99.90;;;;;;4951150;28;20182;-29
2023/09/12 01:13:02;;;;;;;13.95;9.93;;;18.30;99.90;;;;;;4948902;28;20256;-30
2023/09/12 01:15:27;;;;;;;10.77;9.40;;;18.30;99.90;;;;;;4974862;28;20210;-30
2023/09/12 01:17:57;;;;;;;14.02;9.80;;;18.30;99.90;;;;;;4984091;28;20180;-30
2023/09/12 01:20:28;;;;;;;13.23;9.40;;;18.30;99.90;;;;;;4960357;28;20184;-30
2023/09/12 01:23:32;;;;;;;17.98;10.55;;;18.30;99.90;;;;;;4956676;28;20184;-30
2023/09/12 01:26:02;;;;;;;14.00;10.15;;;18.30;99.90;;;;;;4957515;28;20216;-30
2023/09/12 01:28:31;;;;;;;13.75;9.85;;;18.30;99.90;;;;;;4976023;28;20243;-30
2023/09/12 01:30:59;;;;;;;12.18;9.75;;;18.30;99.90;;;;;;4962050;28;20671;-30
2023/09/12 01:33:26;;;;;;;14.38;9.60;;;18.30;99.90;;;;;;4970787;28;20204;-30
2023/09/12 01:35:51;;;;;;;12.25;9.98;;;18.30;99.90;;;;;;4958722;28;20217;-30
2023/09/12 01:38:18;;;;;;;17.20;10.68;;;18.20;99.90;;;;;;4954284;28;20181;-30
2023/09/12 01:40:49;;;;;;;12.93;9.98;;;18.10;99.90;;;;;;4956808;28;20196;-30
2023/09/12 01:43:17;;;;;;;11.75;9.15;;;18.00;99.90;;;;;;4958672;28;20194;-30
2023/09/12 01:45:45;;;;;;;15.05;10.23;;;18.00;99.90;;;;;;4963147;28;20220;-30
2023/09/12 01:48:12;;;;;;;13.05;10.05;;;18.00;99.90;;;;;;4953289;28;20191;-30
2023/09/12 01:50:38;;;;;;;15.25;10.25;;;18.00;99.90;;;;;;4958852;28;20188;-31
2023/09/12 01:53:04;;;;;;;15.20;10.10;;;18.00;99.90;;;;;;4961869;28;20188;-30
2023/09/12 01:55:31;;;;;;;11.60;10.43;;;17.90;99.90;;;;;;4951218;28;20204;-31
2023/09/12 01:57:58;;;;;;;15.88;10.35;;;17.90;99.90;;;;;;4957688;28;20670;-30
2023/09/12 02:00:24;;;;;;;13.20;10.02;;;17.80;99.90;;;;;;4966923;28;20191;-30
2023/09/12 02:02:50;;;;;;;11.40;9.43;;;17.80;99.90;;;;;;4956096;28;20184;-30
2023/09/12 02:05:21;;;;;;;11.10;9.60;;;17.80;99.90;;;;;;4951110;28;20258;-30
2023/09/12 02:07:47;;;;;;;13.63;10.27;;;17.80;99.90;;;;;;4961979;28;20181;-30
2023/09/12 02:10:14;;;;;;;13.75;9.70;;;17.80;99.90;;;;;;4966607;28;20175;-31
2023/09/12 02:12:40;;;;;;;15.35;10.05;;;17.70;99.90;;;;;;4958026;28;20211;-30
2023/09/12 02:15:06;;;;;;;16.65;9.82;;;17.80;99.90;;;;;;4953616;28;20196;-30
2023/09/12 02:17:32;;;;;;;14.35;9.35;;;17.70;99.90;;;;;;4957005;28;20199;-30
2023/09/12 02:19:58;;;;;;;12.70;9.50;;;17.70;99.90;;;;;;4949217;28;20184;-30
2023/09/12 02:22:24;;;;;;;12.50;10.10;;;17.70;99.90;;;;;;4954986;28;20192;-30
2023/09/12 02:24:50;;;;;;;13.73;10.02;;;17.70;99.90;;;;;;4973544;28;20211;-30
2023/09/12 02:27:16;;;;;;;12.00;9.73;;;17.70;99.90;;;;;;4969436;28;20196;-30
2023/09/12 02:29:43;;;;;;;12.57;10.23;;;17.80;99.90;;;;;;4945128;28;20238;-30
2023/09/12 02:32:09;;;;;;;12.25;9.82;;;17.70;99.90;;;;;;4970965;28;20179;-30
2023/09/12 02:34:35;;;;;;;13.00;9.85;;;17.80;99.90;;;;;;4985302;28;20211;-30
2023/09/12 02:37:01;;;;;;;13.48;9.60;;;17.80;99.90;;;;;;4957799;28;20195;-30
2023/09/12 02:39:27;;;;;;;13.70;10.23;;;17.80;99.90;;;;;;4958282;28;20270;-30
2023/09/12 02:41:53;;;;;;;14.02;9.95;;;17.70;99.90;;;;;;4957027;28;20176;-30
2023/09/12 02:44:19;;;;;;;14.13;10.23;;;17.70;99.90;;;;;;4954552;28;20201;-30
2023/09/12 02:46:45;;;;;;;12.52;9.93;;;17.60;99.90;;;;;;4949864;28;20208;-31
2023/09/12 02:49:11;;;;;;;13.38;10.45;;;17.60;99.90;;;;;;4958003;28;20176;-31
2023/09/12 02:51:41;;;;;;;15.57;9.77;;;17.60;99.90;;;;;;4954382;28;20179;-32
2023/09/12 02:54:07;;;;;;;17.20;10.13;;;17.60;99.90;;;;;;4947123;28;20196;-31
2023/09/12 02:56:33;;;;;;;15.38;10.10;;;17.60;99.90;;;;;;4958146;28;20195;-31
2023/09/12 02:58:59;;;;;;;12.18;9.50;;;17.60;99.90;;;;;;4968169;28;20295;-31
2023/09/12 03:01:27;;;;;;;14.40;10.25;;;17.60;99.90;;;;;;4948777;28;20271;-30
2023/09/12 03:03:54;;;;;;;11.13;9.75;;;17.50;99.90;;;;;;4957007;28;20253;-30
2023/09/12 03:06:20;;;;;;;12.70;9.95;;;17.50;99.90;;;;;;4951313;28;20233;-30
2023/09/12 03:08:47;;;;;;;13.63;9.43;;;17.40;99.90;;;;;;4957013;28;20184;-30
2023/09/12 03:11:13;;;;;;;14.18;9.75;;;17.40;99.90;;;;;;4949985;28;20179;-30
2023/09/12 03:13:40;;;;;;;10.18;9.18;;;17.40;99.90;;;;;;4971863;28;20188;-30
2023/09/12 03:16:14;;;;;;;15.73;10.10;;;17.30;99.90;;;;;;4973276;28;20208;-30
2023/09/12 03:18:40;;;;;;;10.60;9.50;;;17.30;99.90;;;;;;4958781;28;20185;-30
2023/09/12 03:21:06;;;;;;;12.63;9.85;;;17.20;99.90;;;;;;4970857;28;20195;-31
2023/09/12 03:23:33;;;;;;;16.63;10.40;;;17.20;99.90;;;;;;4958742;28;20195;-31
2023/09/12 03:26:06;;;;;;;13.65;9.50;;;17.10;99.90;;;;;;4967730;28;20283;-30
2023/09/12 03:28:33;;;;;;;11.10;9.57;;;17.10;99.90;;;;;;4964495;28;20226;-30
2023/09/12 03:31:13;;;;;;;15.68;10.63;;;17.10;99.90;;;;;;4949189;28;20195;-31
2023/09/12 03:33:41;;;;;;;12.63;9.80;;;17.10;99.90;;;;;;4961924;28;20210;-30
2023/09/12 03:36:08;;;;;;;16.85;10.23;;;17.10;99.90;;;;;;4982657;28;20307;-30
2023/09/12 03:38:34;;;;;;;14.38;10.90;;;17.10;99.90;;;;;;4972941;28;20188;-30
2023/09/12 03:41:01;;;;;;;12.02;10.10;;;17.10;99.90;;;;;;4955656;28;20203;-30
2023/09/12 03:43:27;;;;;;;14.07;10.23;;;17.10;99.90;;;;;;4973040;28;20207;-31
2023/09/12 03:45:53;;;;;;;12.30;9.50;;;17.10;99.90;;;;;;4963769;28;20239;-31
2023/09/12 03:48:20;;;;;;;15.40;10.50;;;17.10;99.90;;;;;;4952689;28;20655;-30
2023/09/12 03:50:46;;;;;;;13.93;10.02;;;17.10;99.90;;;;;;4954329;28;20266;-31
2023/09/12 03:53:14;;;;;;;12.82;10.13;;;17.10;99.90;;;;;;4969847;28;20181;-30
2023/09/12 03:55:40;;;;;;;12.45;10.13;;;17.00;99.90;;;;;;4945976;28;20435;-30
2023/09/12 03:58:06;;;;;;;12.25;9.50;;;16.90;99.90;;;;;;4949204;28;20176;-30
2023/09/12 04:00:32;;;;;;;11.65;9.63;;;16.90;99.90;;;;;;4954612;28;20211;-30
2023/09/12 04:02:58;;;;;;;13.10;10.30;;;16.90;99.90;;;;;;4965143;28;20216;-30
2023/09/12 04:05:25;;;;;;;12.40;9.35;;;16.90;99.90;;;;;;4957252;28;20204;-30
2023/09/12 04:07:55;;;;;;;12.60;10.40;;;16.80;99.90;;;;;;4959064;28;20192;-30
2023/09/12 04:10:25;;;;;;;17.50;10.65;;;16.80;99.90;;;;;;4973451;28;20194;-31
2023/09/12 04:12:51;;;;;;;12.98;10.43;;;16.70;99.90;;;;;;4970135;28;20180;-30
2023/09/12 04:15:17;;;;;;;12.68;10.80;;;16.70;99.90;;;;;;4974720;28;20211;-30
2023/09/12 04:17:43;;;;;;;13.38;10.70;;;16.80;99.90;;;;;;4960646;28;20267;-31
2023/09/12 04:20:13;;;;;;;12.05;10.77;;;16.80;99.90;;;;;;4956380;28;20271;-30
2023/09/12 04:22:41;;;;;;;16.98;10.80;;;16.80;99.90;;;;;;4949207;28;20192;-31
2023/09/12 04:25:07;;;;;;;14.50;11.27;;;16.80;99.90;;;;;;4952183;28;20207;-30
2023/09/12 04:27:34;;;;;;;16.20;11.32;;;16.70;99.90;;;;;;4976465;28;20298;-30
2023/09/12 04:30:00;;;;;;;12.77;10.73;;;16.70;99.90;;;;;;4956494;28;20180;-30
2023/09/12 04:32:26;;;;;;;12.23;10.73;;;16.70;99.90;;;;;;4960873;28;20184;-31
2023/09/12 04:34:52;;;;;;;17.45;11.50;;;16.80;99.90;;;;;;4976798;28;20237;-30
2023/09/12 04:37:18;;;;;;;13.10;10.82;;;16.70;99.90;;;;;;4961033;28;20172;-30
2023/09/12 04:39:45;;;;;;;14.35;10.95;;;16.70;99.90;;;;;;4966931;28;20276;-30
2023/09/12 04:42:11;;;;;;;14.27;11.15;;;16.70;99.90;;;;;;4959931;28;20243;-30
2023/09/12 04:44:39;;;;;;;12.93;10.77;;;16.80;99.90;;;;;;4971473;28;20199;-30
2023/09/12 04:47:05;;;;;;;12.93;11.25;;;16.80;99.90;;;;;;4959156;28;20244;-30
2023/09/12 04:49:31;;;;;;;13.05;11.70;;;16.90;99.90;;;;;;4976897;28;20188;-30
2023/09/12 04:51:57;;;;;;;13.40;10.57;;;16.80;99.90;;;;;;4976616;28;20190;-30
2023/09/12 04:54:23;;;;;;;12.27;10.38;;;16.90;99.90;;;;;;4968333;28;20208;-30
2023/09/12 04:56:49;;;;;;;13.40;10.88;;;16.90;99.90;;;;;;4952274;28;20185;-30
2023/09/12 04:59:15;;;;;;;14.88;10.43;;;16.90;99.90;;;;;;4973322;28;20184;-31
2023/09/12 05:01:41;;;;;;;14.10;11.38;;;16.90;99.90;;;;;;4967256;28;20211;-30
2023/09/12 05:04:07;;;;;;;14.55;10.77;;;16.90;99.90;;;;;;4964032;28;20204;-30
2023/09/12 05:06:33;;;;;;;16.13;10.75;;;16.90;99.90;;;;;;4948801;28;20216;-30
2023/09/12 05:08:59;;;;;;;14.05;11.18;;;16.90;99.90;;;;;;4974461;28;20180;-30
2023/09/12 05:11:25;;;;;;;19.15;10.27;;;16.90;99.90;;;;;;4975677;28;20283;-30
2023/09/12 05:13:51;;;;;;;14.73;10.65;;;16.90;99.90;;;;;;4966404;28;20180;-30
2023/09/12 05:16:17;;;;;;;15.85;11.23;;;16.90;99.90;;;;;;4959290;28;20180;-30
2023/09/12 05:18:43;;;;;;;16.88;11.60;;;16.90;99.90;;;;;;4968326;28;20195;-30
2023/09/12 05:21:09;;;;;;;12.90;10.32;;;16.90;99.90;;;;;;4971749;28;20227;-30
2023/09/12 05:23:35;;;;;;;14.25;10.80;;;16.90;99.90;;;;;;4968563;28;20188;-30
2023/09/12 05:26:01;;;;;;;14.38;10.80;;;16.90;99.90;;;;;;4945167;28;20276;-30
2023/09/12 05:28:27;;;;;;;12.35;10.23;;;17.00;99.90;;;;;;4955647;28;20183;-30
2023/09/12 05:30:53;;;;;;;10.98;9.77;;;17.10;99.90;;;;;;4967677;28;20180;-30
2023/09/12 05:33:19;;;;;;;13.35;9.38;;;17.10;99.90;;;;;;4953402;28;20238;-30
2023/09/12 05:35:46;;;;;;;12.27;9.93;;;17.20;99.90;;;;;;4951026;28;20231;-30
2023/09/12 05:38:12;;;;;;;13.38;10.40;;;17.30;99.90;;;;;;4969788;28;20219;-30
2023/09/12 05:40:38;;;;;;;14.27;10.15;;;17.40;99.90;;;;;;4976100;28;20184;-30
2023/09/12 05:43:04;;;;;;;14.82;10.32;;;17.50;99.90;;;;;;4969866;28;20207;-29
2023/09/12 05:45:32;;;;;;;13.07;10.43;;;17.60;99.90;;;;;;4952150;28;20223;-30
2023/09/12 05:48:03;;;;;;;13.90;10.25;;;17.80;99.90;;;;;;4956988;28;20184;-30
2023/09/12 05:50:29;;;;;;;17.33;10.13;;;17.90;99.90;;;;;;4958605;28;20253;-30
2023/09/12 05:52:55;;;;;;;15.45;10.80;;;18.00;99.90;;;;;;4959598;28;20252;-30
2023/09/12 05:55:20;;;;;;;11.48;10.10;;;18.10;99.90;;;;;;4975602;28;20235;-30
2023/09/12 05:57:52;;;;;;;11.65;10.45;;;18.10;99.90;;;;;;4975490;28;20191;-30
2023/09/12 06:00:18;;;;;;;13.23;10.27;;;18.20;99.90;;;;;;4969647;28;20265;-30
2023/09/12 06:02:45;;;;;;;15.27;10.43;;;18.20;99.90;;;;;;4953862;28;20267;-30
2023/09/12 06:05:11;;;;;;;12.27;10.45;;;18.30;99.90;;;;;;4952099;28;20721;-31
2023/09/12 06:07:38;;;;;;;12.00;10.55;;;18.30;99.90;;;;;;4958907;28;20237;-30
2023/09/12 06:10:05;;;;;;;13.32;10.50;;;18.40;99.90;;;;;;4966365;28;20187;-30
2023/09/12 06:12:32;;;;;;;11.70;10.15;;;18.40;99.90;;;;;;4959088;28;20278;-29
2023/09/12 06:14:59;;;;;;;14.25;11.43;;;18.50;99.90;;;;;;4949761;28;20214;-30
2023/09/12 06:17:25;;;;;;;13.60;10.57;;;18.50;99.90;;;;;;4950688;28;20192;-30
2023/09/12 06:19:51;;;;;;;15.60;11.32;;;18.60;99.90;;;;;;4951529;28;20192;-30
2023/09/12 06:22:18;;;;;;;16.58;10.98;;;18.60;99.90;;;;;;4958497;28;20172;-30
2023/09/12 06:24:44;;;;;;;11.90;9.90;;;18.60;99.90;;;;;;4955918;28;20227;-30
2023/09/12 06:27:12;;;;;;;11.77;10.57;;;18.60;99.90;;;;;;4963514;28;20223;-31
2023/09/12 06:29:38;;;;;;;12.82;9.80;;;18.60;99.90;;;;;;4950271;28;20203;-30
2023/09/12 06:32:04;;;;;;;12.77;9.82;;;18.60;99.90;;;;;;4956748;28;20184;-30
2023/09/12 06:34:30;;;;;;;13.10;10.45;;;18.60;99.90;;;;;;4958465;28;20223;-30
2023/09/12 06:36:56;;;;;;;12.07;10.65;;;18.60;99.90;;;;;;4974053;28;20708;-30
2023/09/12 06:39:24;;;;;;;12.95;10.15;;;18.60;99.90;;;;;;4966044;28;20175;-30
2023/09/12 06:41:50;;;;;;;12.35;10.18;;;18.60;99.90;;;;;;4955808;28;20667;-30
2023/09/12 06:44:15;;;;;;;15.23;10.85;;;18.50;99.90;;;;;;4955413;28;20215;-30
2023/09/12 06:46:41;;;;;;;13.40;10.43;;;18.60;99.90;;;;;;4950656;28;20200;-31
2023/09/12 06:49:07;;;;;;;15.38;10.88;;;18.60;99.90;;;;;;4948057;28;20275;-30
2023/09/12 06:51:33;;;;;;;15.00;11.30;;;18.60;99.90;;;;;;4946955;28;20177;-31
2023/09/12 06:53:59;;;;;;;15.10;11.70;;;18.70;99.90;;;;;;4971568;28;20184;-30
2023/09/12 06:56:25;;;;;;;11.57;10.40;;;18.80;99.90;;;;;;4970274;28;20188;-30
2023/09/12 06:58:53;;;;;;;14.90;10.95;;;18.80;99.90;;;;;;4969607;28;20199;-30
2023/09/12 07:01:18;;;;;;;13.02;11.60;;;18.90;99.90;;;;;;4951302;28;20195;-31
2023/09/12 07:03:44;;;;;;;14.60;11.57;;;18.90;99.90;;;;;;4965943;28;20176;-31
2023/09/12 07:06:10;;;;;;;14.25;11.30;;;19.00;99.90;;;;;;4974335;28;20218;-30
2023/09/12 07:08:36;;;;;;;14.57;10.95;;;19.00;99.90;;;;;;4974023;28;20183;-31
2023/09/12 07:11:05;;;;;;;13.02;11.23;;;19.00;99.90;;;;;;4949678;28;20280;-30
2023/09/12 07:13:32;;;;;;;15.02;10.60;;;19.00;99.90;;;;;;4974161;28;20179;-31
2023/09/12 07:15:59;;;;;;;15.50;10.90;;;19.10;99.90;;;;;;4971779;28;20239;-30
2023/09/12 07:18:25;;;;;;;13.45;10.88;;;19.20;99.90;;;;;;4950801;28;20249;-30
2023/09/12 07:21:01;;;;;;;15.40;11.27;;;19.30;99.90;;;;;;4957927;28;20183;-30
2023/09/12 07:23:28;;;;;;;14.82;10.45;;;19.30;99.90;;;;;;4964527;28;20273;-31
2023/09/12 07:25:57;;;;;;;16.20;11.00;;;19.40;99.90;;;;;;4969461;28;20281;-31
2023/09/12 07:28:27;;;;;;;15.35;11.55;;;19.50;99.90;;;;;;4970909;28;20212;-31
2023/09/12 07:30:56;;;;;;;17.25;10.48;;;19.50;99.90;;;;;;4973628;28;20184;-31
2023/09/12 07:33:22;;;;;;;14.48;10.27;;;19.60;99.90;;;;;;4973936;28;20172;-30
2023/09/12 07:35:51;;;;;;;16.15;11.25;;;19.70;99.90;;;;;;4958366;28;20246;-30
2023/09/12 07:38:17;;;;;;;13.25;10.57;;;19.80;99.90;;;;;;4959188;28;20192;-29
2023/09/12 07:40:43;;;;;;;15.68;11.13;;;19.80;99.90;;;;;;4944650;28;20238;-30
2023/09/12 07:43:10;;;;;;;13.07;11.05;;;19.80;99.90;;;;;;4957218;28;20195;-30
2023/09/12 07:45:39;;;;;;;14.75;11.18;;;20.00;99.90;;;;;;4950627;28;20231;-30
2023/09/12 07:48:07;;;;;;;16.40;11.43;;;20.00;99.90;;;;;;4947494;28;20215;-30
2023/09/12 07:50:33;;;;;;;12.30;10.85;;;20.00;99.90;;;;;;4978021;28;20191;-30
2023/09/12 07:52:59;;;;;;;17.40;12.25;;;20.10;99.90;;;;;;4959831;28;20180;-30
2023/09/12 07:55:24;;;;;;;14.82;11.25;;;20.20;99.90;;;;;;4961777;28;20234;-31
2023/09/12 07:57:50;;;;;;;16.80;11.25;;;20.20;99.90;;;;;;4954631;28;20192;-30
2023/09/12 08:00:17;;;;;;;14.90;11.30;;;20.20;99.90;;;;;;4959956;28;20187;-30
2023/09/12 08:02:43;;;;;;;14.73;11.00;;;20.30;99.90;;;;;;4961321;28;20263;-31
2023/09/12 08:05:09;;;;;;;16.83;11.00;;;20.40;99.90;;;;;;4953382;28;20292;-30
2023/09/12 08:07:36;;;;;;;14.15;10.70;;;20.50;99.90;;;;;;4971783;28;20228;-31
2023/09/12 08:10:02;;;;;;;12.85;11.05;;;20.70;99.90;;;;;;4958436;28;20194;-30
2023/09/12 08:12:29;;;;;;;12.38;10.80;;;20.80;99.90;;;;;;4973440;28;20184;-30
2023/09/12 08:14:55;;;;;;;12.38;10.93;;;21.00;99.90;;;;;;4947608;28;20202;-31
2023/09/12 08:17:23;;;;;;;12.63;10.32;;;21.30;99.90;;;;;;4953139;28;20184;-31
2023/09/12 08:19:49;;;;;;;11.55;9.90;;;21.40;99.90;;;;;;4969233;28;20194;-31
2023/09/12 08:22:15;;;;;;;15.57;10.60;;;21.60;99.90;;;;;;4974216;28;20275;-31
2023/09/12 08:24:41;;;;;;;15.40;10.77;;;21.80;99.90;;;;;;4957627;28;20216;-31
2023/09/12 08:27:07;;;;;;;11.75;10.55;;;21.90;99.90;;;;;;4958275;28;20211;-30
2023/09/12 08:29:34;;;;;;;15.50;10.77;;;22.10;99.90;;;;;;4983572;28;20198;-30
2023/09/12 08:32:01;;;;;;;15.27;10.77;;;22.20;99.90;;;;;;4960718;28;20180;-32
2023/09/12 08:34:27;;;;;;;14.30;10.38;;;22.40;99.90;;;;;;4960742;28;20211;-30
2023/09/12 08:36:54;;;;;;;13.55;10.13;;;22.50;99.90;;;;;;4960865;28;20254;-31
2023/09/12 08:39:25;;;;;;;16.10;11.15;;;22.60;99.90;;;;;;4956948;28;20191;-31
2023/09/12 08:41:52;;;;;;;13.38;10.82;;;22.70;99.90;;;;;;4954786;28;20192;-32
2023/09/12 08:44:19;;;;;;;12.90;11.00;;;22.90;99.90;;;;;;4952100;28;20208;-31
2023/09/12 08:46:45;;;;;;;12.35;10.07;;;23.00;99.90;;;;;;4974585;28;20211;-30
2023/09/12 08:49:11;;;;;;;15.40;10.23;;;23.20;99.90;;;;;;4970712;28;20231;-30
2023/09/12 08:51:39;;;;;;;11.65;10.35;;;23.40;99.90;;;;;;4951296;28;20183;-30
2023/09/12 08:54:05;;;;;;;11.10;10.00;;;23.50;99.90;;;;;;4968749;28;20189;-31
2023/09/12 08:56:34;;;;;;;13.80;9.93;;;23.80;99.90;;;;;;4957323;28;20192;-31
2023/09/12 08:59:01;;;;;;;12.10;10.30;;;24.00;99.90;;;;;;4967010;28;20188;-31
2023/09/12 09:01:30;;;;;;;11.20;10.05;;;24.20;99.90;;;;;;4967193;28;20192;-30
2023/09/12 09:03:57;;;;;;;11.00;9.90;;;24.40;99.90;;;;;;4952196;28;20188;-31
2023/09/12 09:06:24;;;;;;;16.20;10.73;;;24.50;99.90;;;;;;4976212;28;20207;-30
2023/09/12 09:08:52;;;;;;;12.98;10.60;;;24.70;99.90;;;;;;4956844;28;20340;-31
2023/09/12 09:11:18;;;;;;;10.85;9.77;;;24.80;99.90;;;;;;4960159;28;20187;-31
2023/09/12 09:13:44;;;;;;;13.98;9.93;;;24.90;99.90;;;;;;4952374;28;20184;-31
2023/09/12 09:16:14;;;;;;;11.90;10.73;;;25.10;99.90;;;;;;4958138;28;20211;-31
2023/09/12 09:19:10;;;;;;;10.85;9.88;;;25.20;99.90;;;;;;4940625;28;20191;-31
2023/09/12 09:21:37;;;;;;;12.00;9.98;;;25.40;99.90;;;;;;4943947;28;20745;-31
2023/09/12 09:24:09;;;;;;;10.77;9.77;;;25.50;99.90;;;;;;4959445;28;20183;-32
2023/09/12 09:26:51;;;;;;;14.68;10.02;;;25.70;99.90;;;;;;4956514;28;20212;-32
2023/09/12 09:29:21;;;;;;;11.20;9.85;;;25.90;99.90;;;;;;4956873;28;20251;-31
2023/09/12 09:31:49;;;;;;;12.30;10.43;;;26.00;99.90;;;;;;4952777;28;20181;-31
2023/09/12 09:34:17;;;;;;;11.82;10.60;;;26.10;99.90;;;;;;4970699;28;20216;-31
2023/09/12 09:36:51;;;;;;;14.32;11.25;;;26.20;99.90;;;;;;4970513;28;20263;-31
2023/09/12 09:39:18;;;;;;;12.20;10.13;;;26.30;99.90;;;;;;4956865;28;20187;-31
2023/09/12 09:41:55;;;;;;;12.40;10.35;;;26.40;99.90;;;;;;4970049;28;20177;-31
2023/09/12 09:44:26;;;;;;;10.45;9.48;;;26.50;99.90;;;;;;4957669;28;20207;-31
2023/09/12 09:46:57;;;;;;;12.73;9.60;;;26.70;99.90;;;;;;4951104;28;20255;-31
2023/09/12 09:49:23;;;;;;;10.57;9.57;;;26.90;99.90;;;;;;4950760;28;20686;-31
2023/09/12 09:51:49;;;;;;;10.00;9.07;;;26.90;99.90;;;;;;4945527;28;20166;-31
2023/09/12 09:54:15;;;;;;;10.77;9.27;;;26.90;99.90;;;;;;4955171;28;20204;-31
2023/09/12 09:56:54;;;;;;;10.88;9.45;;;27.00;99.90;;;;;;4954155;28;20184;-31
2023/09/12 09:59:24;;;;;;;9.35;8.40;;;27.10;99.90;;;;;;4965011;28;20231;-31
2023/09/12 10:01:54;;;;;;;11.75;9.25;;;27.40;99.90;;;;;;4951216;28;20210;-31
2023/09/12 10:04:22;;;;;;;12.23;8.85;;;27.50;99.90;;;;;;4975149;28;20290;-31
2023/09/12 10:06:49;;;;;;;8.27;7.55;;;27.60;99.90;;;;;;4958756;28;20208;-31
2023/09/12 10:09:17;;;;;;;9.60;8.40;;;27.70;99.90;;;;;;4961832;28;20185;-31
2023/09/12 10:11:45;;;;;;;10.82;8.90;;;27.80;99.90;;;;;;4948583;28;20267;-31
2023/09/12 10:14:15;;;;;;;8.38;7.57;;;27.90;99.90;;;;;;4955508;28;20280;-31
2023/09/12 10:16:55;;;;;;;9.55;8.65;;;28.20;99.90;;;;;;4951119;28;20872;-31
2023/09/12 10:19:35;;;;;;;8.70;7.97;;;28.40;99.90;;;;;;4943095;28;20184;-31
2023/09/12 10:22:40;;;;;;;10.02;8.63;;;28.50;99.90;;;;;;4958726;28;20203;-31
2023/09/12 10:25:08;;;;;;;9.75;8.77;;;28.70;99.90;;;;;;4958396;28;20199;-31
2023/09/12 10:27:34;;;;;;;9.75;8.73;;;28.70;99.90;;;;;;4982941;28;20208;-31
2023/09/12 10:30:02;;;;;;;9.07;8.18;;;28.70;99.90;;;;;;4958005;28;20196;-31
2023/09/12 10:32:30;;;;;;;9.55;8.55;;;28.80;99.90;;;;;;4948083;28;20181;-31
2023/09/12 10:34:59;;;;;;;9.30;8.23;;;28.80;99.90;;;;;;4953571;28;20212;-30
2023/09/12 10:37:27;;;;;;;9.50;8.35;;;28.90;99.90;;;;;;4958162;28;20274;-30
2023/09/12 10:39:57;;;;;;;11.85;8.52;;;29.00;99.90;;;;;;4958964;28;20233;-31
2023/09/12 10:42:26;;;;;;;9.20;8.27;;;29.20;99.90;;;;;;4951127;28;20258;-31
2023/09/12 10:44:55;;;;;;;9.82;8.82;;;29.30;99.90;;;;;;4966187;28;20215;-31
2023/09/12 10:47:21;;;;;;;13.32;8.07;;;29.30;99.90;;;;;;4950607;28;20203;-31
2023/09/12 10:49:48;;;;;;;8.98;7.85;;;29.50;99.90;;;;;;4973427;28;20188;-32
2023/09/12 10:52:25;;;;;;;9.05;8.20;;;29.70;99.90;;;;;;4942256;28;20297;-31
2023/09/12 10:54:51;;;;;;;9.02;8.23;;;29.90;99.90;;;;;;4955454;28;20210;-31
2023/09/12 10:57:17;;;;;;;11.63;9.13;;;30.10;99.90;;;;;;4974273;28;20188;-32
2023/09/12 11:00:19;;;;;;;9.65;8.43;;;30.30;99.90;;;;;;4973528;28;20271;-31
2023/09/12 11:02:45;;;;;;;9.57;8.68;;;30.40;99.90;;;;;;4974643;28;20270;-31
2023/09/12 11:05:29;;;;;;;10.65;8.65;;;30.50;99.90;;;;;;4954401;28;20310;-31
2023/09/12 11:07:59;;;;;;;10.07;8.02;;;30.70;99.90;;;;;;4971756;28;20200;-31
2023/09/12 11:10:27;;;;;;;10.13;8.38;;;30.80;99.90;;;;;;4951178;28;20194;-31
2023/09/12 11:12:57;;;;;;;9.50;8.40;;;30.80;99.90;;;;;;4966480;28;20219;-31
2023/09/12 11:15:25;;;;;;;9.77;8.63;;;30.80;99.90;;;;;;4955300;28;20200;-31
2023/09/12 11:18:14;;;;;;;9.52;8.52;;;30.60;99.90;;;;;;4970808;28;20200;-31
2023/09/12 11:21:03;;;;;;;8.82;7.95;;;30.70;99.90;;;;;;4951992;28;20194;-31
2023/09/12 11:23:30;;;;;;;9.07;8.07;;;30.90;99.90;;;;;;4955687;28;20180;-31
2023/09/12 11:26:13;;;;;;;9.90;8.55;;;31.10;99.90;;;;;;4950215;28;20212;-32
2023/09/12 11:28:44;;;;;;;8.18;7.47;;;31.30;99.90;;;;;;4962192;28;20184;-31
2023/09/12 11:31:25;;;;;;;7.50;6.90;;;31.40;99.90;;;;;;4979909;28;20189;-31
2023/09/12 11:33:53;;;;;;;7.05;6.45;;;31.60;99.90;;;;;;4950675;28;20173;-31
2023/09/12 11:36:23;;;;;;;6.97;6.38;;;31.70;99.90;;;;;;4956638;28;20211;-31
2023/09/12 11:38:50;;;;;;;7.43;6.82;;;31.80;99.90;;;;;;4982870;28;20184;-31
2023/09/12 11:41:40;;;;;;;7.20;6.63;;;32.00;99.90;;;;;;4956819;28;20176;-32
2023/09/12 11:44:10;;;;;;;8.63;6.50;;;32.00;99.90;;;;;;4945609;28;20258;-32
2023/09/12 11:46:43;;;;;;;7.90;7.15;;;32.10;99.90;;;;;;4932868;28;20222;-32
2023/09/12 11:49:10;;;;;;;8.13;7.43;;;32.20;99.90;;;;;;4946511;28;20187;-31
2023/09/12 11:51:35;;;;;;;8.80;7.20;;;32.20;99.90;;;;;;4945653;28;20597;-32
2023/09/12 11:54:03;;;;;;;9.55;7.10;;;32.30;99.90;;;;;;4989262;28;20188;-32
2023/09/12 11:56:30;;;;;;;8.57;7.65;;;32.50;99.90;;;;;;4967181;28;20252;-32
2023/09/12 11:58:56;;;;;;;9.45;7.38;;;32.40;99.90;;;;;;4968483;28;20188;-31
2023/09/12 12:01:22;;;;;;;9.88;7.03;;;32.50;99.90;;;;;;4948693;28;20200;-32
2023/09/12 12:03:52;;;;;;;7.88;7.22;;;32.70;99.90;;;;;;4971654;28;20231;-32
2023/09/12 12:06:19;;;;;;;9.45;7.32;;;32.60;99.90;;;;;;4967419;28;20215;-32
2023/09/12 12:08:47;;;;;;;10.25;7.10;;;32.50;99.90;;;;;;4969257;28;20197;-32
2023/09/12 12:11:19;;;;;;;8.02;7.20;;;32.60;99.90;;;;;;4971102;28;20184;-31
2023/09/12 12:13:49;;;;;;;7.38;6.78;;;32.60;99.90;;;;;;4950184;28;20176;-32
2023/09/12 12:16:17;;;;;;;7.68;6.97;;;32.70;99.90;;;;;;4948546;28;20232;-32
2023/09/12 12:18:44;;;;;;;8.35;7.15;;;32.50;99.90;;;;;;4994181;28;20274;-32
2023/09/12 12:21:10;;;;;;;7.78;6.80;;;32.60;99.90;;;;;;4964074;28;20189;-32
2023/09/12 12:23:37;;;;;;;7.57;6.78;;;32.70;99.90;;;;;;4947682;28;20183;-32
2023/09/12 12:26:26;;;;;;;7.90;7.30;;;33.00;99.90;;;;;;4981030;28;20303;-32
2023/09/12 12:29:05;;;;;;;8.23;7.32;;;33.10;99.90;;;;;;4977295;28;20185;-32
2023/09/12 12:31:31;;;;;;;8.23;7.10;;;33.10;99.90;;;;;;4962499;28;20184;-32
2023/09/12 12:33:59;;;;;;;8.00;7.20;;;33.00;99.90;;;;;;4971291;28;20187;-32
2023/09/12 12:36:27;;;;;;;8.82;7.13;;;33.10;99.90;;;;;;4958247;28;20200;-31
2023/09/12 12:38:53;;;;;;;8.30;6.93;;;33.10;99.90;;;;;;4972110;28;20263;-32